Архив погоды в Александровском

Метеограмма Александровское
Вторник, 17 Июля
Время местн. Темп Ветер Видим Явления Облачность нижн/средн/верх Атм. давл. Влжн Точка росы ВНГО R Сост. почвы Tg s
Напр Скр Прв ур.ст ур.м изм
15:00 +28.5° С,С-З 2 - 20 км - переменная облачность 757 761 -0.8 31% +9.9° 1 км - - - -
12:00 +26.9° С 1 - 20 км - переменная облачность 758 762 -0.4 39% +11.8° 1 км - - - -
09:00 +24.4° С,С-В 1 - 20 км - ясно 758 762 -0.2 69% +18.3° более 2.5 км - - - -
06:00 +15.6° З 1 - 20 км - ясно 758 763 0 91% +14.1° более 2.5 км 0 Сухая (без трещин) - -
03:00 +12.9° Ю-З 1 - 20 км - ясно 758 763 +0.2 94% +12° более 2.5 км - - - -
00:00 +14.6° Ю-З 1 - 20 км - ясно 758 762 +0.2 91% +13.1° более 2.5 км - - - -
Понедельник, 16 Июля
Время местн. Темп Ветер Видим Явления Облачность нижн/средн/верх Атм. давл. Влжн Точка росы ВНГО R Сост. почвы Tg s
Напр Скр Прв ур.ст ур.м изм
21:00 +23.7° С-В 1 - 20 км - ясно 758 762 -0.2 52% +13.3° более 2.5 км - - - -
18:00 +27° С 2 - 20 км - ясно 758 762 -0.8 32% +8.9° более 2.5 км 0 - - -
15:00 +26.5° С 1 - 20 км - переменная облачность 759 763 -0.8 38% +11° 1 км - - - -
12:00 +25.6° С,С-З 2 - 20 км - переменная облачность 760 764 -0.5 41% +11.5° более 2.5 км - - - -
09:00 +21.9° С 1 - 20 км - переменная облачность 760 764 +0.3 59% +13.6° более 2.5 км - - - -
06:00 +18.5° С,С-В 1 - 20 км - переменная облачность 760 764 +0.2 71% +13.2° более 2.5 км 0 Влажная (без луж) - -
03:00 +13.8° штиль 0 - 20 км - переменная облачность 760 764 +0.1 91% +12.3° более 2.5 км - - - -
00:00 +19.8° В 2 - 20 км - переменная облачность 759 764 +0.3 65% +13.1° более 2.5 км - - - -
Воскресенье, 15 Июля
Время местн. Темп Ветер Видим Явления Облачность нижн/средн/верх Атм. давл. Влжн Точка росы ВНГО R Сост. почвы Tg s
Напр Скр Прв ур.ст ур.м изм
21:00 +22.6° С,С-В 2 - 20 км - переменная облачность 759 763 -0.2 54% +12.9° более 2.5 км - - - -
18:00 +24.6° С,С-В 2 - 20 км - переменная облачность 759 764 -0.4 42% +10.7° более 2.5 км 0 - - -
15:00 +24.4° С 3 - 20 км - ясно 760 764 -0.8 39% +9.4° более 2.5 км - - - -
12:00 +22.2° С-В 3 - 20 км - ясно 760 765 0 46% +10.1° более 2.5 км - - - -
09:00 +19° В 3 - 20 км - ясно 760 765 +1 56% +10.1° более 2.5 км - - - -
06:00 +15.8° В,С-В 3 - 20 км - ясно 759 764 +0.8 63% +8.8° более 2.5 км 0 Влажная (без луж) - -
03:00 +16° В 3 - 20 км - ясно 759 763 +0.7 62% +8.8° более 2.5 км - - - -
00:00 +18.6° В,С-В 3 - 20 км - ясно 758 762 +0.5 57% +9.8° более 2.5 км - - - -
Суббота, 14 Июля
Время местн. Темп Ветер Видим Явления Облачность нижн/средн/верх Атм. давл. Влжн Точка росы ВНГО R Сост. почвы Tg s
Напр Скр Прв ур.ст ур.м изм
21:00 +20.7° В,С-В 3 - 20 км - ясно 757 762 -0.1 46% +8.6° более 2.5 км - - - -
18:00 +21.9° В,С-В 4 - 20 км - ясно 758 762 -0.5 39% +7.5° более 2.5 км 0 - - -
15:00 +21.2° С-В 3 - 20 км - ясно 758 762 +0.2 41% +7.5° более 2.5 км - - - -
12:00 +20.1° С-В 4 - 20 км - ясно 758 762 +0.5 42% +6.9° более 2.5 км - - - -